sensor_id;sensor_type;location;lat;lon;timestamp;noise_LAeq;noise_LA_min;noise_LA_max;noise_LA01;noise_LA95
76339;Laerm;26644;50.248;19.032;2023-04-24T00:00:30;50.01;44.09;65.57;;
76339;Laerm;26644;50.248;19.032;2023-04-24T00:03:35;52.12;45.37;63.47;;
76339;Laerm;26644;50.248;19.032;2023-04-24T00:06:41;50.27;44.78;54.77;;
76339;Laerm;26644;50.248;19.032;2023-04-24T00:09:45;50.47;45.56;58.30;;
76339;Laerm;26644;50.248;19.032;2023-04-24T00:12:53;50.55;45.69;56.82;;
76339;Laerm;26644;50.248;19.032;2023-04-24T00:15:58;49.98;44.73;55.87;;
76339;Laerm;26644;50.248;19.032;2023-04-24T00:19:03;51.66;47.03;55.65;;
76339;Laerm;26644;50.248;19.032;2023-04-24T00:22:08;51.32;44.77;59.10;;
76339;Laerm;26644;50.248;19.032;2023-04-24T00:25:13;50.77;44.42;56.28;;
76339;Laerm;26644;50.248;19.032;2023-04-24T00:28:20;48.36;41.90;55.37;;
76339;Laerm;26644;50.248;19.032;2023-04-24T00:31:25;49.73;45.31;54.43;;
76339;Laerm;26644;50.248;19.032;2023-04-24T00:34:30;49.02;44.45;53.22;;
76339;Laerm;26644;50.248;19.032;2023-04-24T00:37:35;49.68;46.44;53.09;;
76339;Laerm;26644;50.248;19.032;2023-04-24T00:40:39;50.48;45.76;56.82;;
76339;Laerm;26644;50.248;19.032;2023-04-24T00:43:48;49.44;43.10;54.08;;
76339;Laerm;26644;50.248;19.032;2023-04-24T00:46:54;50.75;47.05;55.01;;
76339;Laerm;26644;50.248;19.032;2023-04-24T00:50:02;50.12;44.31;55.51;;
76339;Laerm;26644;50.248;19.032;2023-04-24T00:53:06;49.45;45.22;54.00;;
76339;Laerm;26644;50.248;19.032;2023-04-24T00:56:13;49.22;44.97;52.91;;
76339;Laerm;26644;50.248;19.032;2023-04-24T00:59:20;49.39;45.19;53.37;;
76339;Laerm;26644;50.248;19.032;2023-04-24T01:02:26;48.87;44.17;53.17;;
76339;Laerm;26644;50.248;19.032;2023-04-24T01:05:31;49.45;44.45;55.50;;
76339;Laerm;26644;50.248;19.032;2023-04-24T01:08:39;48.94;44.59;53.40;;
76339;Laerm;26644;50.248;19.032;2023-04-24T01:11:45;50.35;45.95;56.36;;
76339;Laerm;26644;50.248;19.032;2023-04-24T01:14:53;49.81;44.24;53.79;;
76339;Laerm;26644;50.248;19.032;2023-04-24T01:17:58;48.81;44.15;53.56;;
76339;Laerm;26644;50.248;19.032;2023-04-24T01:21:05;48.46;44.02;62.31;;
76339;Laerm;26644;50.248;19.032;2023-04-24T01:24:15;49.81;46.10;53.81;;
76339;Laerm;26644;50.248;19.032;2023-04-24T01:27:21;50.50;45.50;55.86;;
76339;Laerm;26644;50.248;19.032;2023-04-24T01:30:26;49.72;46.44;53.46;;
76339;Laerm;26644;50.248;19.032;2023-04-24T01:33:34;49.74;45.91;54.88;;
76339;Laerm;26644;50.248;19.032;2023-04-24T01:36:39;49.66;44.31;53.41;;
76339;Laerm;26644;50.248;19.032;2023-04-24T01:39:49;49.73;45.13;54.10;;
76339;Laerm;26644;50.248;19.032;2023-04-24T01:42:54;50.14;46.42;54.18;;
76339;Laerm;26644;50.248;19.032;2023-04-24T01:45:59;49.47;45.61;53.67;;
76339;Laerm;26644;50.248;19.032;2023-04-24T01:49:04;49.63;45.59;53.65;;
76339;Laerm;26644;50.248;19.032;2023-04-24T01:52:09;51.02;46.96;55.35;;
76339;Laerm;26644;50.248;19.032;2023-04-24T01:55:16;50.14;45.06;56.44;;
76339;Laerm;26644;50.248;19.032;2023-04-24T01:58:23;51.49;47.46;57.17;;
76339;Laerm;26644;50.248;19.032;2023-04-24T02:01:33;49.85;45.48;54.45;;
76339;Laerm;26644;50.248;19.032;2023-04-24T02:04:39;50.60;46.64;54.46;;
76339;Laerm;26644;50.248;19.032;2023-04-24T02:07:44;50.35;45.11;53.95;;
76339;Laerm;26644;50.248;19.032;2023-04-24T02:10:52;50.03;46.38;54.26;;
76339;Laerm;26644;50.248;19.032;2023-04-24T02:13:56;50.73;46.76;54.77;;
76339;Laerm;26644;50.248;19.032;2023-04-24T02:17:02;51.30;47.39;57.32;;
76339;Laerm;26644;50.248;19.032;2023-04-24T02:20:07;51.79;48.48;55.81;;
76339;Laerm;26644;50.248;19.032;2023-04-24T02:23:14;51.30;47.15;58.34;;
76339;Laerm;26644;50.248;19.032;2023-04-24T02:26:23;51.72;47.75;55.16;;
76339;Laerm;26644;50.248;19.032;2023-04-24T02:29:28;51.72;48.14;55.48;;
76339;Laerm;26644;50.248;19.032;2023-04-24T02:32:33;51.64;47.98;56.27;;
76339;Laerm;26644;50.248;19.032;2023-04-24T02:35:38;51.94;47.74;56.90;;
76339;Laerm;26644;50.248;19.032;2023-04-24T02:38:43;52.41;48.51;56.34;;
76339;Laerm;26644;50.248;19.032;2023-04-24T02:41:51;52.71;49.10;56.58;;
76339;Laerm;26644;50.248;19.032;2023-04-24T02:44:56;52.26;47.75;56.40;;
76339;Laerm;26644;50.248;19.032;2023-04-24T02:48:01;53.21;48.64;56.68;;
76339;Laerm;26644;50.248;19.032;2023-04-24T02:51:06;53.53;50.38;57.91;;
76339;Laerm;26644;50.248;19.032;2023-04-24T02:54:12;52.88;48.90;56.68;;
76339;Laerm;26644;50.248;19.032;2023-04-24T02:57:19;52.97;49.47;56.14;;
76339;Laerm;26644;50.248;19.032;2023-04-24T03:00:24;52.72;49.93;56.47;;
76339;Laerm;26644;50.248;19.032;2023-04-24T03:03:28;53.43;50.00;57.41;;
76339;Laerm;26644;50.248;19.032;2023-04-24T03:06:34;53.47;49.98;58.78;;
76339;Laerm;26644;50.248;19.032;2023-04-24T03:09:39;53.83;50.01;59.63;;
76339;Laerm;26644;50.248;19.032;2023-04-24T03:12:46;53.81;50.89;56.94;;
76339;Laerm;26644;50.248;19.032;2023-04-24T03:15:53;54.45;49.34;73.64;;
76339;Laerm;26644;50.248;19.032;2023-04-24T03:18:58;54.15;51.02;61.96;;
76339;Laerm;26644;50.248;19.032;2023-04-24T03:22:07;54.25;50.96;58.35;;
76339;Laerm;26644;50.248;19.032;2023-04-24T03:25:14;54.20;50.63;57.53;;
76339;Laerm;26644;50.248;19.032;2023-04-24T03:28:22;54.16;51.18;58.41;;
76339;Laerm;26644;50.248;19.032;2023-04-24T03:31:39;54.39;51.16;58.21;;
76339;Laerm;26644;50.248;19.032;2023-04-24T03:34:44;54.14;50.68;59.61;;
76339;Laerm;26644;50.248;19.032;2023-04-24T03:37:50;53.95;50.02;58.81;;
76339;Laerm;26644;50.248;19.032;2023-04-24T03:41:15;54.18;50.52;68.73;;
76339;Laerm;26644;50.248;19.032;2023-04-24T03:44:37;54.21;50.89;57.15;;
76339;Laerm;26644;50.248;19.032;2023-04-24T03:47:42;54.34;51.30;58.31;;
76339;Laerm;26644;50.248;19.032;2023-04-24T03:50:48;54.62;51.79;65.81;;
76339;Laerm;26644;50.248;19.032;2023-04-24T03:53:52;54.17;50.64;64.50;;
76339;Laerm;26644;50.248;19.032;2023-04-24T03:56:58;54.29;51.14;56.61;;
76339;Laerm;26644;50.248;19.032;2023-04-24T04:00:11;54.83;51.19;57.80;;
76339;Laerm;26644;50.248;19.032;2023-04-24T04:03:24;54.44;50.83;75.67;;
76339;Laerm;26644;50.248;19.032;2023-04-24T04:06:29;54.00;50.91;57.01;;
76339;Laerm;26644;50.248;19.032;2023-04-24T04:09:36;54.70;51.05;68.20;;
76339;Laerm;26644;50.248;19.032;2023-04-24T04:12:41;69.48;52.28;86.64;;
76339;Laerm;26644;50.248;19.032;2023-04-24T04:15:49;55.18;51.96;61.00;;
76339;Laerm;26644;50.248;19.032;2023-04-24T04:18:54;55.67;52.59;58.31;;
76339;Laerm;26644;50.248;19.032;2023-04-24T04:22:01;56.01;52.77;60.62;;
76339;Laerm;26644;50.248;19.032;2023-04-24T04:25:15;55.40;52.02;60.91;;
76339;Laerm;26644;50.248;19.032;2023-04-24T04:28:22;55.38;52.39;68.44;;
76339;Laerm;26644;50.248;19.032;2023-04-24T04:31:29;54.96;51.82;61.03;;
76339;Laerm;26644;50.248;19.032;2023-04-24T04:34:39;55.11;52.37;58.10;;
76339;Laerm;26644;50.248;19.032;2023-04-24T04:37:46;55.31;52.41;63.54;;
76339;Laerm;26644;50.248;19.032;2023-04-24T04:41:05;55.54;52.61;66.95;;
76339;Laerm;26644;50.248;19.032;2023-04-24T04:44:10;55.19;52.02;62.11;;
76339;Laerm;26644;50.248;19.032;2023-04-24T04:47:21;54.92;51.48;58.77;;
76339;Laerm;26644;50.248;19.032;2023-04-24T04:50:30;55.32;52.16;59.92;;
76339;Laerm;26644;50.248;19.032;2023-04-24T04:53:41;55.10;51.66;60.10;;
76339;Laerm;26644;50.248;19.032;2023-04-24T04:56:46;54.94;51.89;60.17;;
76339;Laerm;26644;50.248;19.032;2023-04-24T04:59:52;54.46;51.84;59.56;;
76339;Laerm;26644;50.248;19.032;2023-04-24T05:03:14;54.25;51.28;57.55;;
76339;Laerm;26644;50.248;19.032;2023-04-24T05:06:19;54.56;51.40;60.21;;
76339;Laerm;26644;50.248;19.032;2023-04-24T05:09:25;54.50;51.96;59.52;;
76339;Laerm;26644;50.248;19.032;2023-04-24T05:12:37;54.37;50.80;63.57;;
76339;Laerm;26644;50.248;19.032;2023-04-24T05:15:42;53.51;50.36;61.84;;
76339;Laerm;26644;50.248;19.032;2023-04-24T05:18:50;53.94;50.74;57.66;;
76339;Laerm;26644;50.248;19.032;2023-04-24T05:22:02;53.92;51.26;59.33;;
76339;Laerm;26644;50.248;19.032;2023-04-24T05:25:11;53.55;49.92;59.19;;
76339;Laerm;26644;50.248;19.032;2023-04-24T05:28:22;53.80;50.19;67.79;;
76339;Laerm;26644;50.248;19.032;2023-04-24T05:31:39;54.00;50.75;68.94;;
76339;Laerm;26644;50.248;19.032;2023-04-24T05:34:46;54.49;51.41;59.51;;
76339;Laerm;26644;50.248;19.032;2023-04-24T05:37:51;54.21;50.97;65.14;;
76339;Laerm;26644;50.248;19.032;2023-04-24T05:40:56;54.07;50.81;61.89;;
76339;Laerm;26644;50.248;19.032;2023-04-24T05:44:02;54.11;51.07;62.74;;
76339;Laerm;26644;50.248;19.032;2023-04-24T05:47:06;54.25;51.42;62.24;;
76339;Laerm;26644;50.248;19.032;2023-04-24T05:50:14;54.33;50.60;59.34;;
76339;Laerm;26644;50.248;19.032;2023-04-24T05:53:19;54.41;51.41;63.59;;
76339;Laerm;26644;50.248;19.032;2023-04-24T05:56:24;54.52;49.57;60.88;;
76339;Laerm;26644;50.248;19.032;2023-04-24T05:59:29;54.46;51.50;63.76;;
76339;Laerm;26644;50.248;19.032;2023-04-24T06:02:34;54.32;50.76;59.90;;
76339;Laerm;26644;50.248;19.032;2023-04-24T06:05:42;54.00;50.57;61.04;;
76339;Laerm;26644;50.248;19.032;2023-04-24T06:08:49;53.98;50.62;61.77;;
76339;Laerm;26644;50.248;19.032;2023-04-24T06:11:53;54.07;50.42;62.25;;
76339;Laerm;26644;50.248;19.032;2023-04-24T06:15:07;53.50;50.03;58.39;;
76339;Laerm;26644;50.248;19.032;2023-04-24T06:18:31;54.28;49.95;63.06;;
76339;Laerm;26644;50.248;19.032;2023-04-24T06:21:39;53.61;50.53;67.08;;
76339;Laerm;26644;50.248;19.032;2023-04-24T06:24:44;55.78;50.93;64.84;;
76339;Laerm;26644;50.248;19.032;2023-04-24T06:27:50;55.92;50.01;62.67;;
76339;Laerm;26644;50.248;19.032;2023-04-24T06:30:55;54.23;50.97;75.61;;
76339;Laerm;26644;50.248;19.032;2023-04-24T06:34:00;53.93;50.00;73.37;;
76339;Laerm;26644;50.248;19.032;2023-04-24T06:37:07;54.15;50.28;68.62;;
76339;Laerm;26644;50.248;19.032;2023-04-24T06:40:13;54.14;50.65;63.92;;
76339;Laerm;26644;50.248;19.032;2023-04-24T06:43:19;53.88;50.26;72.55;;
76339;Laerm;26644;50.248;19.032;2023-04-24T06:46:25;54.27;50.10;72.15;;
76339;Laerm;26644;50.248;19.032;2023-04-24T06:49:29;53.97;51.11;67.23;;
76339;Laerm;26644;50.248;19.032;2023-04-24T06:52:37;53.79;50.81;60.21;;
76339;Laerm;26644;50.248;19.032;2023-04-24T06:55:42;53.58;50.17;61.18;;
76339;Laerm;26644;50.248;19.032;2023-04-24T06:58:48;53.25;49.41;63.01;;
76339;Laerm;26644;50.248;19.032;2023-04-24T07:01:53;53.14;49.38;68.14;;
76339;Laerm;26644;50.248;19.032;2023-04-24T07:04:58;53.93;49.40;66.35;;
76339;Laerm;26644;50.248;19.032;2023-04-24T07:08:05;52.69;48.55;57.23;;
76339;Laerm;26644;50.248;19.032;2023-04-24T07:11:13;53.49;49.78;61.32;;
76339;Laerm;26644;50.248;19.032;2023-04-24T07:14:18;54.31;50.37;64.04;;
76339;Laerm;26644;50.248;19.032;2023-04-24T07:17:23;53.84;50.05;65.16;;
76339;Laerm;26644;50.248;19.032;2023-04-24T07:20:27;53.79;48.89;62.57;;
76339;Laerm;26644;50.248;19.032;2023-04-24T07:23:35;52.84;48.73;65.15;;
76339;Laerm;26644;50.248;19.032;2023-04-24T07:26:40;52.88;48.32;65.30;;
76339;Laerm;26644;50.248;19.032;2023-04-24T07:29:45;52.06;48.54;63.25;;
76339;Laerm;26644;50.248;19.032;2023-04-24T07:32:50;54.42;49.14;64.84;;
76339;Laerm;26644;50.248;19.032;2023-04-24T07:35:55;53.68;49.82;64.61;;
76339;Laerm;26644;50.248;19.032;2023-04-24T07:39:02;53.61;49.64;62.97;;
76339;Laerm;26644;50.248;19.032;2023-04-24T07:42:08;54.04;50.19;62.90;;
76339;Laerm;26644;50.248;19.032;2023-04-24T07:45:12;54.36;51.06;68.86;;
76339;Laerm;26644;50.248;19.032;2023-04-24T07:48:17;53.68;50.24;60.50;;
76339;Laerm;26644;50.248;19.032;2023-04-24T07:51:23;53.14;49.59;64.86;;
76339;Laerm;26644;50.248;19.032;2023-04-24T07:54:32;52.77;48.93;60.17;;
76339;Laerm;26644;50.248;19.032;2023-04-24T07:57:36;52.95;49.37;59.60;;
76339;Laerm;26644;50.248;19.032;2023-04-24T08:00:42;53.01;49.41;65.26;;
76339;Laerm;26644;50.248;19.032;2023-04-24T08:03:46;54.84;51.32;62.96;;
76339;Laerm;26644;50.248;19.032;2023-04-24T08:06:51;53.12;49.98;60.21;;
76339;Laerm;26644;50.248;19.032;2023-04-24T08:09:59;52.94;49.93;60.44;;
76339;Laerm;26644;50.248;19.032;2023-04-24T08:13:04;53.04;49.46;69.17;;
76339;Laerm;26644;50.248;19.032;2023-04-24T08:16:08;52.68;49.56;57.24;;
76339;Laerm;26644;50.248;19.032;2023-04-24T08:19:14;56.40;50.07;67.21;;
76339;Laerm;26644;50.248;19.032;2023-04-24T08:22:18;56.05;50.75;70.04;;
76339;Laerm;26644;50.248;19.032;2023-04-24T08:25:26;56.55;49.06;68.87;;
76339;Laerm;26644;50.248;19.032;2023-04-24T08:28:30;53.06;49.26;62.77;;
76339;Laerm;26644;50.248;19.032;2023-04-24T08:31:36;52.85;49.13;63.33;;
76339;Laerm;26644;50.248;19.032;2023-04-24T08:34:40;53.15;48.70;60.53;;
76339;Laerm;26644;50.248;19.032;2023-04-24T08:37:45;52.47;48.64;64.26;;
76339;Laerm;26644;50.248;19.032;2023-04-24T08:40:53;52.68;49.58;62.44;;
76339;Laerm;26644;50.248;19.032;2023-04-24T08:43:58;52.21;48.13;60.84;;
76339;Laerm;26644;50.248;19.032;2023-04-24T08:47:04;54.59;49.15;80.57;;
76339;Laerm;26644;50.248;19.032;2023-04-24T08:50:10;55.40;49.49;82.06;;
76339;Laerm;26644;50.248;19.032;2023-04-24T08:53:17;51.97;48.21;59.79;;
76339;Laerm;26644;50.248;19.032;2023-04-24T08:56:28;53.26;49.74;60.55;;
76339;Laerm;26644;50.248;19.032;2023-04-24T08:59:34;53.90;49.10;60.67;;
76339;Laerm;26644;50.248;19.032;2023-04-24T09:02:42;57.28;52.41;69.72;;
76339;Laerm;26644;50.248;19.032;2023-04-24T09:05:49;58.14;50.10;68.86;;
76339;Laerm;26644;50.248;19.032;2023-04-24T09:08:55;55.13;50.78;67.13;;
76339;Laerm;26644;50.248;19.032;2023-04-24T09:12:04;54.05;50.13;59.74;;
76339;Laerm;26644;50.248;19.032;2023-04-24T09:15:11;54.62;51.16;59.89;;
76339;Laerm;26644;50.248;19.032;2023-04-24T09:18:17;53.31;49.33;61.13;;
76339;Laerm;26644;50.248;19.032;2023-04-24T09:21:23;53.60;50.14;62.99;;
76339;Laerm;26644;50.248;19.032;2023-04-24T09:24:27;54.38;50.13;63.99;;
76339;Laerm;26644;50.248;19.032;2023-04-24T09:27:35;55.38;50.45;65.92;;
76339;Laerm;26644;50.248;19.032;2023-04-24T09:30:40;54.99;51.11;60.32;;
76339;Laerm;26644;50.248;19.032;2023-04-24T09:33:54;54.45;50.90;65.51;;
76339;Laerm;26644;50.248;19.032;2023-04-24T09:36:59;54.48;50.86;65.94;;
76339;Laerm;26644;50.248;19.032;2023-04-24T09:40:13;54.46;50.21;60.17;;
76339;Laerm;26644;50.248;19.032;2023-04-24T09:43:20;54.56;49.91;59.22;;
76339;Laerm;26644;50.248;19.032;2023-04-24T09:46:30;53.78;49.98;65.07;;
76339;Laerm;26644;50.248;19.032;2023-04-24T09:49:35;54.14;50.83;65.44;;
76339;Laerm;26644;50.248;19.032;2023-04-24T09:52:43;53.66;49.66;59.59;;
76339;Laerm;26644;50.248;19.032;2023-04-24T09:55:47;54.25;50.48;61.78;;
76339;Laerm;26644;50.248;19.032;2023-04-24T09:59:04;54.45;48.80;64.73;;
76339;Laerm;26644;50.248;19.032;2023-04-24T10:02:17;52.70;48.96;58.69;;
76339;Laerm;26644;50.248;19.032;2023-04-24T10:05:25;54.65;49.13;71.38;;
76339;Laerm;26644;50.248;19.032;2023-04-24T10:08:34;53.90;50.12;61.83;;
76339;Laerm;26644;50.248;19.032;2023-04-24T10:11:44;53.10;49.30;63.29;;
76339;Laerm;26644;50.248;19.032;2023-04-24T10:14:53;52.89;47.98;62.31;;
76339;Laerm;26644;50.248;19.032;2023-04-24T10:17:59;52.92;48.35;68.25;;
76339;Laerm;26644;50.248;19.032;2023-04-24T10:21:05;52.85;48.40;61.69;;
76339;Laerm;26644;50.248;19.032;2023-04-24T10:24:11;52.33;49.06;57.66;;
76339;Laerm;26644;50.248;19.032;2023-04-24T10:27:18;53.82;49.02;65.20;;
76339;Laerm;26644;50.248;19.032;2023-04-24T10:30:30;53.79;49.59;60.13;;
76339;Laerm;26644;50.248;19.032;2023-04-24T10:33:38;53.38;48.86;64.79;;
76339;Laerm;26644;50.248;19.032;2023-04-24T10:36:51;53.40;49.82;57.48;;
76339;Laerm;26644;50.248;19.032;2023-04-24T10:39:56;53.78;49.41;62.18;;
76339;Laerm;26644;50.248;19.032;2023-04-24T10:43:03;53.71;49.84;62.67;;
76339;Laerm;26644;50.248;19.032;2023-04-24T10:46:20;53.65;49.50;70.44;;
76339;Laerm;26644;50.248;19.032;2023-04-24T10:49:30;52.56;48.32;61.37;;
76339;Laerm;26644;50.248;19.032;2023-04-24T10:52:44;54.64;48.75;75.76;;
76339;Laerm;26644;50.248;19.032;2023-04-24T10:55:56;56.24;50.91;79.28;;
76339;Laerm;26644;50.248;19.032;2023-04-24T10:59:01;55.42;51.74;65.01;;
76339;Laerm;26644;50.248;19.032;2023-04-24T11:02:10;55.27;51.74;63.16;;
76339;Laerm;26644;50.248;19.032;2023-04-24T11:05:16;55.42;52.04;67.50;;
76339;Laerm;26644;50.248;19.032;2023-04-24T11:08:26;55.28;51.94;61.49;;
76339;Laerm;26644;50.248;19.032;2023-04-24T11:11:31;55.76;52.49;63.39;;
76339;Laerm;26644;50.248;19.032;2023-04-24T11:15:01;56.45;52.47;68.55;;
76339;Laerm;26644;50.248;19.032;2023-04-24T11:18:13;57.59;52.33;74.22;;
76339;Laerm;26644;50.248;19.032;2023-04-24T11:21:20;56.60;52.05;69.89;;
76339;Laerm;26644;50.248;19.032;2023-04-24T11:24:39;56.11;52.00;64.70;;
76339;Laerm;26644;50.248;19.032;2023-04-24T11:28:04;57.30;52.35;68.06;;
76339;Laerm;26644;50.248;19.032;2023-04-24T11:31:38;57.02;52.96;67.98;;
76339;Laerm;26644;50.248;19.032;2023-04-24T11:34:50;55.77;51.89;65.25;;
76339;Laerm;26644;50.248;19.032;2023-04-24T11:37:55;56.55;51.81;67.45;;
76339;Laerm;26644;50.248;19.032;2023-04-24T11:41:02;55.70;52.00;72.70;;
76339;Laerm;26644;50.248;19.032;2023-04-24T11:44:09;55.57;51.70;63.50;;
76339;Laerm;26644;50.248;19.032;2023-04-24T11:47:15;55.99;50.98;64.38;;
76339;Laerm;26644;50.248;19.032;2023-04-24T11:50:24;55.68;51.92;70.75;;
76339;Laerm;26644;50.248;19.032;2023-04-24T11:53:31;56.31;51.60;70.75;;
76339;Laerm;26644;50.248;19.032;2023-04-24T11:56:36;55.11;51.69;66.62;;
76339;Laerm;26644;50.248;19.032;2023-04-24T11:59:41;55.17;51.70;60.91;;
76339;Laerm;26644;50.248;19.032;2023-04-24T12:02:46;54.75;50.63;61.74;;
76339;Laerm;26644;50.248;19.032;2023-04-24T12:06:05;55.58;51.55;60.38;;
76339;Laerm;26644;50.248;19.032;2023-04-24T12:09:10;55.80;52.21;62.05;;
76339;Laerm;26644;50.248;19.032;2023-04-24T12:12:17;56.35;52.04;63.83;;
76339;Laerm;26644;50.248;19.032;2023-04-24T12:15:23;57.02;52.93;67.04;;
76339;Laerm;26644;50.248;19.032;2023-04-24T12:18:28;58.41;54.08;81.46;;
76339;Laerm;26644;50.248;19.032;2023-04-24T12:21:35;57.66;52.27;76.01;;
76339;Laerm;26644;50.248;19.032;2023-04-24T12:24:56;56.58;52.59;67.81;;
76339;Laerm;26644;50.248;19.032;2023-04-24T12:28:13;57.01;53.03;69.78;;
76339;Laerm;26644;50.248;19.032;2023-04-24T12:31:21;56.84;52.48;65.77;;
76339;Laerm;26644;50.248;19.032;2023-04-24T12:34:26;57.61;53.19;72.88;;
76339;Laerm;26644;50.248;19.032;2023-04-24T12:37:35;56.88;53.61;65.29;;
76339;Laerm;26644;50.248;19.032;2023-04-24T12:40:42;57.37;53.48;65.35;;
76339;Laerm;26644;50.248;19.032;2023-04-24T12:43:54;56.66;52.58;70.47;;
76339;Laerm;26644;50.248;19.032;2023-04-24T12:46:58;56.47;52.88;61.62;;
76339;Laerm;26644;50.248;19.032;2023-04-24T12:50:06;58.28;53.14;80.65;;
76339;Laerm;26644;50.248;19.032;2023-04-24T12:53:14;64.67;53.10;94.20;;
76339;Laerm;26644;50.248;19.032;2023-04-24T12:56:20;56.37;52.32;64.12;;
76339;Laerm;26644;50.248;19.032;2023-04-24T12:59:25;57.21;53.15;66.24;;
76339;Laerm;26644;50.248;19.032;2023-04-24T13:02:31;57.65;52.35;68.43;;
76339;Laerm;26644;50.248;19.032;2023-04-24T13:05:35;58.19;52.76;76.61;;
76339;Laerm;26644;50.248;19.032;2023-04-24T13:08:43;57.98;53.32;72.86;;
76339;Laerm;26644;50.248;19.032;2023-04-24T13:11:49;58.38;53.58;76.10;;
76339;Laerm;26644;50.248;19.032;2023-04-24T13:14:54;57.58;53.71;71.80;;
76339;Laerm;26644;50.248;19.032;2023-04-24T13:17:58;57.19;53.34;69.13;;
76339;Laerm;26644;50.248;19.032;2023-04-24T13:21:04;57.36;53.53;72.53;;
76339;Laerm;26644;50.248;19.032;2023-04-24T13:24:11;58.01;52.80;71.38;;
76339;Laerm;26644;50.248;19.032;2023-04-24T13:27:18;57.85;53.15;74.03;;
76339;Laerm;26644;50.248;19.032;2023-04-24T13:30:23;57.73;52.87;73.45;;
76339;Laerm;26644;50.248;19.032;2023-04-24T13:33:28;57.66;53.56;73.38;;
76339;Laerm;26644;50.248;19.032;2023-04-24T13:36:33;56.95;53.20;63.74;;
76339;Laerm;26644;50.248;19.032;2023-04-24T13:39:41;56.54;53.49;63.14;;
76339;Laerm;26644;50.248;19.032;2023-04-24T13:42:45;56.83;53.14;73.36;;
76339;Laerm;26644;50.248;19.032;2023-04-24T13:45:51;57.10;53.71;64.07;;
76339;Laerm;26644;50.248;19.032;2023-04-24T13:48:55;56.72;53.38;64.27;;
76339;Laerm;26644;50.248;19.032;2023-04-24T13:52:01;57.27;53.16;72.51;;
76339;Laerm;26644;50.248;19.032;2023-04-24T13:55:09;56.58;52.35;64.79;;
76339;Laerm;26644;50.248;19.032;2023-04-24T13:58:14;56.42;53.05;60.92;;
76339;Laerm;26644;50.248;19.032;2023-04-24T14:01:19;56.12;52.42;61.31;;
76339;Laerm;26644;50.248;19.032;2023-04-24T14:04:26;56.33;52.71;67.87;;
76339;Laerm;26644;50.248;19.032;2023-04-24T14:07:31;57.54;52.92;68.34;;
76339;Laerm;26644;50.248;19.032;2023-04-24T14:10:39;56.60;53.24;62.60;;
76339;Laerm;26644;50.248;19.032;2023-04-24T14:13:45;56.64;52.39;64.64;;
76339;Laerm;26644;50.248;19.032;2023-04-24T14:16:51;56.09;52.42;63.00;;
76339;Laerm;26644;50.248;19.032;2023-04-24T14:19:55;56.92;52.70;70.29;;
76339;Laerm;26644;50.248;19.032;2023-04-24T14:23:03;55.94;52.53;67.76;;
76339;Laerm;26644;50.248;19.032;2023-04-24T14:26:10;56.85;52.86;72.31;;
76339;Laerm;26644;50.248;19.032;2023-04-24T14:29:15;56.53;52.19;70.07;;
76339;Laerm;26644;50.248;19.032;2023-04-24T14:32:20;56.15;51.85;63.04;;
76339;Laerm;26644;50.248;19.032;2023-04-24T14:35:26;55.86;52.73;60.15;;
76339;Laerm;26644;50.248;19.032;2023-04-24T14:38:32;56.05;52.73;75.53;;
76339;Laerm;26644;50.248;19.032;2023-04-24T14:41:40;55.77;52.45;65.65;;
76339;Laerm;26644;50.248;19.032;2023-04-24T14:44:45;56.16;52.21;63.19;;
76339;Laerm;26644;50.248;19.032;2023-04-24T14:47:50;56.57;52.00;61.64;;
76339;Laerm;26644;50.248;19.032;2023-04-24T14:50:54;57.36;53.74;65.27;;
76339;Laerm;26644;50.248;19.032;2023-04-24T14:54:00;56.43;52.78;68.94;;
76339;Laerm;26644;50.248;19.032;2023-04-24T14:57:10;55.82;52.35;61.17;;
76339;Laerm;26644;50.248;19.032;2023-04-24T15:00:18;55.48;51.91;63.03;;
76339;Laerm;26644;50.248;19.032;2023-04-24T15:03:24;56.20;51.84;70.37;;
76339;Laerm;26644;50.248;19.032;2023-04-24T15:06:30;56.14;52.26;67.06;;
76339;Laerm;26644;50.248;19.032;2023-04-24T15:09:35;56.44;52.44;66.83;;
76339;Laerm;26644;50.248;19.032;2023-04-24T15:12:43;55.75;51.66;67.22;;
76339;Laerm;26644;50.248;19.032;2023-04-24T15:15:49;55.94;51.16;70.73;;
76339;Laerm;26644;50.248;19.032;2023-04-24T15:18:54;55.40;51.96;59.41;;
76339;Laerm;26644;50.248;19.032;2023-04-24T15:21:58;54.83;51.08;65.90;;
76339;Laerm;26644;50.248;19.032;2023-04-24T15:25:05;55.61;52.35;59.70;;
76339;Laerm;26644;50.248;19.032;2023-04-24T15:28:12;55.48;51.44;63.39;;
76339;Laerm;26644;50.248;19.032;2023-04-24T15:31:18;55.75;52.04;65.67;;
76339;Laerm;26644;50.248;19.032;2023-04-24T15:34:24;55.15;50.90;63.81;;
76339;Laerm;26644;50.248;19.032;2023-04-24T15:37:29;55.32;51.38;63.39;;
76339;Laerm;26644;50.248;19.032;2023-04-24T15:40:34;55.53;51.84;67.37;;
76339;Laerm;26644;50.248;19.032;2023-04-24T15:43:41;55.05;51.95;67.35;;
76339;Laerm;26644;50.248;19.032;2023-04-24T15:46:46;54.98;52.04;70.41;;
76339;Laerm;26644;50.248;19.032;2023-04-24T15:49:53;68.98;51.55;100.82;;
76339;Laerm;26644;50.248;19.032;2023-04-24T15:52:57;55.07;50.91;65.84;;
76339;Laerm;26644;50.248;19.032;2023-04-24T15:56:03;55.50;51.61;61.19;;
76339;Laerm;26644;50.248;19.032;2023-04-24T15:59:10;55.21;51.16;59.38;;
76339;Laerm;26644;50.248;19.032;2023-04-24T16:02:16;55.04;51.56;63.19;;
76339;Laerm;26644;50.248;19.032;2023-04-24T16:05:21;55.48;51.24;71.81;;
76339;Laerm;26644;50.248;19.032;2023-04-24T16:08:26;55.07;51.04;69.01;;
76339;Laerm;26644;50.248;19.032;2023-04-24T16:11:32;55.80;51.51;71.12;;
76339;Laerm;26644;50.248;19.032;2023-04-24T16:14:40;54.76;51.26;59.73;;
76339;Laerm;26644;50.248;19.032;2023-04-24T16:17:44;54.65;50.94;72.80;;
76339;Laerm;26644;50.248;19.032;2023-04-24T16:20:50;55.28;50.95;60.87;;
76339;Laerm;26644;50.248;19.032;2023-04-24T16:23:54;55.27;50.43;63.82;;
76339;Laerm;26644;50.248;19.032;2023-04-24T16:26:59;54.99;49.53;65.62;;
76339;Laerm;26644;50.248;19.032;2023-04-24T16:30:08;55.63;51.49;63.32;;
76339;Laerm;26644;50.248;19.032;2023-04-24T16:33:13;54.67;50.94;59.61;;
76339;Laerm;26644;50.248;19.032;2023-04-24T16:36:18;55.00;51.01;60.25;;
76339;Laerm;26644;50.248;19.032;2023-04-24T16:39:24;54.49;51.18;61.16;;
76339;Laerm;26644;50.248;19.032;2023-04-24T16:42:28;55.37;50.64;65.71;;
76339;Laerm;26644;50.248;19.032;2023-04-24T16:45:36;53.89;49.29;64.79;;
76339;Laerm;26644;50.248;19.032;2023-04-24T16:48:41;53.58;48.52;60.59;;
76339;Laerm;26644;50.248;19.032;2023-04-24T16:51:47;53.19;47.61;65.35;;
76339;Laerm;26644;50.248;19.032;2023-04-24T16:54:51;53.78;48.95;59.20;;
76339;Laerm;26644;50.248;19.032;2023-04-24T16:57:56;53.09;49.26;63.15;;
76339;Laerm;26644;50.248;19.032;2023-04-24T17:01:04;55.02;50.38;76.09;;
76339;Laerm;26644;50.248;19.032;2023-04-24T17:04:09;53.71;50.37;59.58;;
76339;Laerm;26644;50.248;19.032;2023-04-24T17:07:13;53.12;49.27;62.04;;
76339;Laerm;26644;50.248;19.032;2023-04-24T17:10:19;54.01;50.08;60.88;;